Terminal Aerodrome Forecast
Issued by NWS Twin Cities, MN

Home | Current Version | Previous Version | Text Only | Print | Product List | Glossary Off
Versions: 1 2 3 4 5 6 7 8 9 10 11 12 13 14 15 16 17 18 19 20 21 22 23 24 25 26 27 28 29 30 31 32

397
FTUS43 KMPX 241759 CCA
TAFMSP
TAF COR
KMSP 241759Z 2418/2524 13008KT P6SM BKN035
     FM242000 14009KT P6SM SCT035 SCT250
     FM250000 14009KT P6SM SCT250
     FM250800 14008KT P6SM BKN120 BKN250
     FM251000 14009KT P6SM SCT050 OVC100 PROB30 2510/2513 -SHRA
      BKN040
     FM251600 16015G24KT P6SM SCT080=

USA.gov is the U.S. government's official web portal to all federal, state and local government web resources and services.